createdAt,value
2022-12-28T00:01:26.476Z,96016.13
2022-12-28T00:03:54.090Z,96016.13
2022-12-28T00:06:22.781Z,96012.41
2022-12-28T00:08:51.643Z,96020.53
2022-12-28T00:11:30.830Z,96008.22
2022-12-28T00:14:00.290Z,96016.72
2022-12-28T00:16:28.756Z,96019.91
2022-12-28T00:18:56.440Z,96018.28
2022-12-28T00:21:22.964Z,96019.13
2022-12-28T00:23:50.496Z,96015.38
2022-12-28T00:26:17.498Z,96016.53
2022-12-28T00:28:44.032Z,96019.19
2022-12-28T00:31:11.724Z,96015.38
2022-12-28T00:33:38.332Z,96012.25
2022-12-28T00:36:05.375Z,96015.78
2022-12-28T00:38:36.754Z,96013.66
2022-12-28T00:41:03.693Z,95996.53
2022-12-28T00:43:30.823Z,95996.41
2022-12-28T00:45:59.038Z,95997.59
2022-12-28T00:48:26.729Z,96000.00
2022-12-28T00:51:00.167Z,95992.38
2022-12-28T00:53:26.563Z,95997.84
2022-12-28T00:55:52.941Z,95999.78
2022-12-28T00:58:19.316Z,95994.84
2022-12-28T01:00:45.782Z,95998.88
2022-12-28T01:03:12.192Z,96001.09
2022-12-28T01:05:39.412Z,96008.91
2022-12-28T01:08:08.068Z,95999.31
2022-12-28T01:10:34.442Z,96001.50
2022-12-28T01:13:00.837Z,95998.97
2022-12-28T01:15:27.256Z,95992.63
2022-12-28T01:17:53.726Z,95996.44
2022-12-28T01:20:20.123Z,95994.59
2022-12-28T01:22:47.923Z,95999.41
2022-12-28T01:25:14.492Z,96003.06
2022-12-28T01:27:40.895Z,96009.75
2022-12-28T01:30:08.490Z,96008.66
2022-12-28T01:32:37.551Z,96014.81
2022-12-28T01:35:04.701Z,96012.53
2022-12-28T01:37:34.494Z,96009.22
2022-12-28T01:40:01.538Z,95997.59
2022-12-28T01:42:27.992Z,96005.81
2022-12-28T01:44:54.527Z,95991.69
2022-12-28T01:47:25.440Z,95991.03
2022-12-28T01:50:02.125Z,95990.19
2022-12-28T01:52:33.325Z,95986.44
2022-12-28T01:55:05.976Z,95969.50
2022-12-28T01:57:38.871Z,95962.50
2022-12-28T02:00:10.542Z,95962.00
2022-12-28T02:02:43.189Z,95956.25
2022-12-28T02:05:09.973Z,95951.88
2022-12-28T02:07:43.297Z,95957.13
2022-12-28T02:10:44.187Z,95937.34
2022-12-28T02:12:59.320Z,95946.38
2022-12-28T02:15:27.308Z,95947.19
2022-12-28T02:17:53.822Z,95940.25
2022-12-28T02:20:20.639Z,95935.03
2022-12-28T02:23:07.961Z,95930.59
2022-12-28T02:26:10.560Z,95927.00
2022-12-28T02:29:09.514Z,95931.59
2022-12-28T02:31:42.713Z,95931.19
2022-12-28T02:34:17.101Z,95922.59
2022-12-28T02:36:50.469Z,95920.44
2022-12-28T02:39:22.477Z,95915.91
2022-12-28T02:41:50.128Z,95917.78
2022-12-28T02:44:38.033Z,95924.25
2022-12-28T02:47:22.992Z,95913.56
2022-12-28T02:50:07.738Z,95898.81
2022-12-28T02:52:57.475Z,95908.09
2022-12-28T02:55:56.214Z,95904.84
2022-12-28T02:58:57.825Z,95908.44
2022-12-28T03:01:46.390Z,95892.41
2022-12-28T03:04:18.717Z,95901.03
2022-12-28T03:07:13.470Z,95888.97
2022-12-28T03:09:47.448Z,95883.03
2022-12-28T03:12:18.931Z,95886.28
2022-12-28T03:14:48.643Z,95866.81
2022-12-28T03:17:37.107Z,95873.78
2022-12-28T03:20:26.581Z,95865.06
2022-12-28T03:23:15.112Z,95864.00
2022-12-28T03:26:03.056Z,95853.44
2022-12-28T03:28:57.681Z,95853.59
2022-12-28T03:31:26.855Z,95867.00
2022-12-28T03:34:06.081Z,95846.16
2022-12-28T03:36:46.267Z,95846.28
2022-12-28T03:39:22.715Z,95840.09
2022-12-28T03:42:12.713Z,95825.72
2022-12-28T03:44:42.582Z,95822.38
2022-12-28T03:47:12.023Z,95823.06
2022-12-28T03:49:39.974Z,95813.72
2022-12-28T03:52:08.473Z,95809.34
2022-12-28T03:54:35.284Z,95814.84
2022-12-28T03:57:01.783Z,95810.50
2022-12-28T03:59:32.561Z,95810.09
2022-12-28T04:02:01.049Z,95805.16
2022-12-28T04:04:29.551Z,95816.63
2022-12-28T04:06:56.588Z,95818.16
2022-12-28T04:09:23.052Z,95808.53
2022-12-28T04:11:49.511Z,95801.16
2022-12-28T04:14:23.387Z,95805.25
2022-12-28T04:16:49.851Z,95805.91
2022-12-28T04:19:18.131Z,95799.59
2022-12-28T04:21:45.303Z,95806.38
2022-12-28T04:24:12.395Z,95804.91
2022-12-28T04:26:40.049Z,95806.06
2022-12-28T04:29:08.264Z,95797.28
2022-12-28T04:31:53.411Z,95797.16
2022-12-28T04:34:21.130Z,95793.53
2022-12-28T04:36:55.382Z,95793.91
2022-12-28T04:39:23.248Z,95804.59
2022-12-28T04:41:49.754Z,95798.94
2022-12-28T04:44:16.126Z,95799.53
2022-12-28T04:46:43.204Z,95800.19
2022-12-28T04:49:09.631Z,95800.31
2022-12-28T04:51:36.030Z,95798.88
2022-12-28T04:54:02.491Z,95796.94
2022-12-28T04:56:29.554Z,95803.06
2022-12-28T04:58:57.129Z,95795.63
2022-12-28T05:01:23.727Z,95796.56
2022-12-28T05:03:55.730Z,95794.66
2022-12-28T05:06:24.890Z,95800.47
2022-12-28T05:08:51.546Z,95791.66
2022-12-28T05:11:19.853Z,95790.97
2022-12-28T05:13:47.570Z,95790.91
2022-12-28T05:16:16.535Z,95795.00
2022-12-28T05:18:43.989Z,95792.06
2022-12-28T05:21:14.576Z,95787.88
2022-12-28T05:23:41.145Z,95782.53
2022-12-28T05:26:11.292Z,95778.94
2022-12-28T05:28:38.266Z,95771.72
2022-12-28T05:31:07.066Z,95770.50
2022-12-28T05:33:35.037Z,95773.31
2022-12-28T05:36:03.643Z,95762.41
2022-12-28T05:38:30.115Z,95761.66
2022-12-28T05:40:56.467Z,95758.09
2022-12-28T05:43:22.888Z,95757.38
2022-12-28T05:45:49.233Z,95767.44
2022-12-28T05:48:16.365Z,95754.44
2022-12-28T05:50:42.818Z,95765.47
2022-12-28T05:53:09.263Z,95765.44
2022-12-28T05:55:35.692Z,95763.00
2022-12-28T05:58:02.046Z,95767.63
2022-12-28T06:00:28.452Z,95781.78
2022-12-28T06:02:55.002Z,95781.09
2022-12-28T06:05:22.130Z,95763.84
2022-12-28T06:07:51.415Z,95760.44
2022-12-28T06:10:17.936Z,95766.16
2022-12-28T06:12:44.355Z,95770.00
2022-12-28T06:15:11.156Z,95771.63
2022-12-28T06:17:37.605Z,95760.38
2022-12-28T06:20:04.866Z,95769.63
2022-12-28T06:22:31.904Z,95774.69
2022-12-28T06:24:58.375Z,95767.69
2022-12-28T06:27:24.869Z,95770.69
2022-12-28T06:29:51.318Z,95767.69
2022-12-28T06:32:17.713Z,95781.25
2022-12-28T06:34:44.094Z,95779.50
2022-12-28T06:37:10.480Z,95782.19
2022-12-28T06:39:37.517Z,95782.69
2022-12-28T06:42:04.030Z,95776.09
2022-12-28T06:44:30.498Z,95771.75
2022-12-28T06:46:56.863Z,95768.53
2022-12-28T06:49:23.246Z,95775.72
2022-12-28T06:51:49.605Z,95773.53
2022-12-28T06:54:16.098Z,95765.84
2022-12-28T06:56:43.185Z,95763.19
2022-12-28T06:59:09.629Z,95765.00
2022-12-28T07:01:38.532Z,95760.00
2022-12-28T07:04:07.097Z,95762.91
2022-12-28T07:06:36.211Z,95774.25
2022-12-28T07:09:04.370Z,95771.84
2022-12-28T07:11:30.848Z,95770.41
2022-12-28T07:13:57.969Z,95770.00
2022-12-28T07:16:27.685Z,95776.09
2022-12-28T07:18:54.952Z,95771.31
2022-12-28T07:21:23.423Z,95765.75
2022-12-28T07:23:51.144Z,95767.97
2022-12-28T07:26:20.046Z,95770.03
2022-12-28T07:28:47.959Z,95764.72
2022-12-28T07:31:17.910Z,95768.34
2022-12-28T07:33:45.581Z,95769.84
2022-12-28T07:36:15.424Z,95775.06
2022-12-28T07:38:42.148Z,95765.56
2022-12-28T07:41:11.538Z,95775.03
2022-12-28T07:43:38.364Z,95769.38
2022-12-28T07:46:07.510Z,95776.69
2022-12-28T07:48:35.617Z,95783.72
2022-12-28T07:51:07.520Z,95777.44
2022-12-28T07:53:35.947Z,95774.66
2022-12-28T07:56:03.013Z,95781.97
2022-12-28T07:58:29.494Z,95780.41
2022-12-28T08:01:03.624Z,95772.56
2022-12-28T08:03:30.058Z,95772.31
2022-12-28T08:06:02.479Z,95767.91
2022-12-28T08:08:28.872Z,95768.53
2022-12-28T08:10:55.355Z,95767.97
2022-12-28T08:13:21.835Z,95769.19
2022-12-28T08:15:53.958Z,95758.47
2022-12-28T08:18:20.413Z,95755.06
2022-12-28T08:20:46.799Z,95764.25
2022-12-28T08:23:13.854Z,95749.16
2022-12-28T08:25:40.239Z,95756.88
2022-12-28T08:28:06.646Z,95767.81
2022-12-28T08:30:33.061Z,95768.09
2022-12-28T08:32:59.452Z,95765.91
2022-12-28T08:35:26.154Z,95765.09
2022-12-28T08:37:54.663Z,95773.31
2022-12-28T08:40:26.822Z,95773.44
2022-12-28T08:42:56.509Z,95770.78
2022-12-28T08:45:22.942Z,95760.75
2022-12-28T08:47:49.375Z,95767.88
2022-12-28T08:50:19.905Z,95768.25
2022-12-28T08:52:46.868Z,95764.97
2022-12-28T08:55:13.314Z,95746.78
2022-12-28T08:57:40.368Z,95752.75
2022-12-28T09:00:08.320Z,95757.06
2022-12-28T09:02:35.050Z,95746.34
2022-12-28T09:05:01.623Z,95747.88
2022-12-28T09:07:28.108Z,95752.75
2022-12-28T09:09:54.634Z,95740.34
2022-12-28T09:12:21.018Z,95754.00
2022-12-28T09:14:48.046Z,95742.91
2022-12-28T09:17:14.408Z,95739.41
2022-12-28T09:19:40.776Z,95733.81
2022-12-28T09:22:07.305Z,95737.75
2022-12-28T09:24:34.024Z,95743.56
2022-12-28T09:27:00.571Z,95745.66
2022-12-28T09:29:27.149Z,95736.06
2022-12-28T09:31:54.255Z,95728.09
2022-12-28T09:34:35.706Z,95718.84
2022-12-28T09:37:03.188Z,95725.97
2022-12-28T09:39:29.928Z,95719.97
2022-12-28T09:42:00.365Z,95722.16
2022-12-28T09:44:56.676Z,95716.81
2022-12-28T09:47:30.144Z,95713.78
2022-12-28T09:50:06.641Z,95712.00
2022-12-28T09:52:36.001Z,95707.22
2022-12-28T09:55:10.625Z,95689.38
2022-12-28T09:57:40.876Z,95698.44
2022-12-28T10:00:14.440Z,95690.31
2022-12-28T10:02:47.622Z,95688.50
2022-12-28T10:05:14.355Z,95690.75
2022-12-28T10:07:40.770Z,95683.88
2022-12-28T10:10:07.666Z,95681.47
2022-12-28T10:12:34.603Z,95682.47
2022-12-28T10:15:01.008Z,95666.94
2022-12-28T10:17:29.643Z,95668.19
2022-12-28T10:19:58.607Z,95663.19
2022-12-28T10:22:31.887Z,95661.44
2022-12-28T10:24:58.268Z,95653.34
2022-12-28T10:27:29.049Z,95651.28
2022-12-28T10:29:55.640Z,95650.31
2022-12-28T10:32:22.229Z,95650.31
2022-12-28T10:34:59.989Z,95642.81
2022-12-28T10:37:29.831Z,95638.53
2022-12-28T10:39:59.639Z,95632.78
2022-12-28T10:42:29.553Z,95629.44
2022-12-28T10:45:01.927Z,95638.69
2022-12-28T10:47:34.680Z,95620.38
2022-12-28T10:50:35.867Z,95623.38
2022-12-28T10:52:57.042Z,95618.91
2022-12-28T10:55:28.881Z,95613.34
2022-12-28T10:58:28.125Z,95609.38
2022-12-28T11:00:53.618Z,95611.28
2022-12-28T11:03:24.744Z,95607.00
2022-12-28T11:06:09.612Z,95603.31
2022-12-28T11:08:36.162Z,95601.88
2022-12-28T11:11:02.545Z,95607.31
2022-12-28T11:13:29.020Z,95608.56
2022-12-28T11:15:55.497Z,95605.03
2022-12-28T11:18:22.058Z,95602.97
2022-12-28T11:20:50.831Z,95592.09
2022-12-28T11:23:20.396Z,95593.38
2022-12-28T11:25:47.110Z,95589.53
2022-12-28T11:28:16.677Z,95582.59
2022-12-28T11:30:43.513Z,95581.16
2022-12-28T11:33:25.162Z,95581.97
2022-12-28T11:35:57.521Z,95579.88
2022-12-28T11:38:40.943Z,95571.41
2022-12-28T11:41:10.653Z,95575.25
2022-12-28T11:43:55.677Z,95567.94
2022-12-28T11:46:39.829Z,95574.00
2022-12-28T11:49:26.023Z,95568.09
2022-12-28T11:52:26.821Z,95572.06
2022-12-28T11:54:55.780Z,95567.88
2022-12-28T11:57:35.548Z,95552.66
2022-12-28T12:00:38.771Z,95547.38
2022-12-28T12:03:05.333Z,95552.00
2022-12-28T12:05:48.344Z,95539.41
2022-12-28T12:08:39.626Z,95539.41
2022-12-28T12:11:32.488Z,95532.66
2022-12-28T12:14:01.321Z,95529.66
2022-12-28T12:16:35.192Z,95528.50
2022-12-28T12:19:06.243Z,95513.72
2022-12-28T12:21:36.512Z,95517.75
2022-12-28T12:24:17.661Z,95522.22
2022-12-28T12:26:50.051Z,95508.44
2022-12-28T12:29:22.102Z,95513.38
2022-12-28T12:31:54.907Z,95504.75
2022-12-28T12:34:26.914Z,95488.63
2022-12-28T12:37:28.284Z,95491.81
2022-12-28T12:40:19.096Z,95478.31
2022-12-28T12:43:04.428Z,95480.47
2022-12-28T12:45:43.208Z,95482.75
2022-12-28T12:48:24.001Z,95477.16
2022-12-28T12:51:04.417Z,95472.16
2022-12-28T12:53:55.897Z,95468.19
2022-12-28T12:56:35.645Z,95461.41
2022-12-28T12:59:18.247Z,95444.72
2022-12-28T13:01:53.258Z,95454.03
2022-12-28T13:04:23.559Z,95451.91
2022-12-28T13:06:55.374Z,95445.31
2022-12-28T13:09:25.371Z,95443.72
2022-12-28T13:11:52.267Z,95440.03
2022-12-28T13:14:21.389Z,95436.13
2022-12-28T13:16:53.000Z,95435.78
2022-12-28T13:19:22.461Z,95431.47
2022-12-28T13:21:50.281Z,95430.56
2022-12-28T13:24:21.752Z,95427.09
2022-12-28T13:26:49.762Z,95435.63
2022-12-28T13:29:20.127Z,95420.66
2022-12-28T13:31:49.185Z,95423.50
2022-12-28T13:34:18.628Z,95412.38
2022-12-28T13:36:49.887Z,95421.56
2022-12-28T13:39:18.763Z,95428.91
2022-12-28T13:41:48.862Z,95422.03
2022-12-28T13:44:32.381Z,95418.19
2022-12-28T13:47:03.951Z,95424.38
2022-12-28T13:49:36.492Z,95425.31
2022-12-28T13:52:07.224Z,95427.41
2022-12-28T13:54:33.868Z,95415.56
2022-12-28T13:57:36.005Z,95410.94
2022-12-28T13:59:49.464Z,95415.00
2022-12-28T14:02:19.723Z,95419.75
2022-12-28T14:04:53.607Z,95420.03
2022-12-28T14:07:24.316Z,95416.88
2022-12-28T14:09:51.521Z,95405.91
2022-12-28T14:12:18.517Z,95413.78
2022-12-28T14:14:48.243Z,95415.63
2022-12-28T14:17:17.691Z,95402.56
2022-12-28T14:19:45.412Z,95396.56
2022-12-28T14:22:25.593Z,95400.38
2022-12-28T14:24:59.721Z,95398.00
2022-12-28T14:27:26.462Z,95398.50
2022-12-28T14:29:54.872Z,95407.31
2022-12-28T14:32:21.785Z,95403.34
2022-12-28T14:34:55.662Z,95394.53
2022-12-28T14:37:27.432Z,95401.28
2022-12-28T14:39:59.744Z,95407.09
2022-12-28T14:42:27.258Z,95396.41
2022-12-28T14:47:44.421Z,95386.31
2022-12-28T14:50:17.612Z,95388.16
2022-12-28T14:52:46.391Z,95374.78
2022-12-28T14:55:24.334Z,95379.66
2022-12-28T14:57:55.203Z,95373.66
2022-12-28T15:00:25.768Z,95383.91
2022-12-28T15:02:53.083Z,95382.22
2022-12-28T15:05:41.303Z,95375.56
2022-12-28T15:08:08.776Z,95373.72
2022-12-28T15:10:39.717Z,95378.75
2022-12-28T15:13:06.428Z,95378.00
2022-12-28T15:15:34.045Z,95384.69
2022-12-28T15:18:00.581Z,95384.31
2022-12-28T15:20:27.052Z,95378.72
2022-12-28T15:22:53.397Z,95392.16
2022-12-28T15:25:19.803Z,95388.28
2022-12-28T15:27:49.392Z,95388.50
2022-12-28T15:30:20.557Z,95387.94
2022-12-28T15:32:51.373Z,95389.59
2022-12-28T15:35:18.211Z,95382.84
2022-12-28T15:37:44.677Z,95385.00
2022-12-28T15:40:11.605Z,95378.50
2022-12-28T15:42:40.637Z,95380.16
2022-12-28T15:45:08.670Z,95371.44
2022-12-28T15:47:35.275Z,95376.75
2022-12-28T15:50:02.541Z,95377.22
2022-12-28T15:52:30.761Z,95372.94
2022-12-28T15:54:57.807Z,95369.66
2022-12-28T15:57:24.536Z,95370.13
2022-12-28T15:59:51.157Z,95370.28
2022-12-28T16:02:18.750Z,95366.47
2022-12-28T16:04:46.211Z,95351.22
2022-12-28T16:07:13.475Z,95374.75
2022-12-28T16:09:40.000Z,95375.56
2022-12-28T16:12:06.855Z,95365.38
2022-12-28T16:14:33.671Z,95364.56
2022-12-28T16:17:00.314Z,95368.72
2022-12-28T16:19:26.880Z,95369.84
2022-12-28T16:21:53.380Z,95355.53
2022-12-28T16:24:20.891Z,95346.94
2022-12-28T16:26:49.064Z,95366.47
2022-12-28T16:29:15.520Z,95348.53
2022-12-28T16:31:42.528Z,95354.56
2022-12-28T16:34:12.283Z,95361.41
2022-12-28T16:36:42.579Z,95353.91
2022-12-28T16:39:13.109Z,95355.97
2022-12-28T16:41:40.606Z,95356.13
2022-12-28T16:44:12.466Z,95346.75
2022-12-28T16:46:39.476Z,95350.88
2022-12-28T16:49:06.280Z,95349.59
2022-12-28T16:51:34.572Z,95339.28
2022-12-28T16:54:01.078Z,95347.06
2022-12-28T16:56:27.693Z,95339.91
2022-12-28T16:58:58.898Z,95326.69
2022-12-28T17:01:25.946Z,95349.91
2022-12-28T17:04:03.777Z,95335.91
2022-12-28T17:06:31.457Z,95335.88
2022-12-28T17:09:00.862Z,95330.81
2022-12-28T17:11:27.849Z,95337.16
2022-12-28T17:14:03.183Z,95335.72
2022-12-28T17:16:30.949Z,95336.03
2022-12-28T17:18:58.793Z,95331.09
2022-12-28T17:21:25.933Z,95340.47
2022-12-28T17:23:52.439Z,95329.69
2022-12-28T17:26:19.055Z,95324.63
2022-12-28T17:28:45.483Z,95334.31
2022-12-28T17:31:15.537Z,95322.22
2022-12-28T17:33:45.800Z,95333.34
2022-12-28T17:36:12.574Z,95326.84
2022-12-28T17:38:39.450Z,95326.69
2022-12-28T17:41:13.961Z,95320.63
2022-12-28T17:43:44.543Z,95321.88
2022-12-28T17:46:11.739Z,95322.19
2022-12-28T17:48:38.367Z,95320.91
2022-12-28T17:51:10.778Z,95317.28
2022-12-28T17:53:38.473Z,95319.81
2022-12-28T17:56:07.960Z,95310.88
2022-12-28T17:58:34.918Z,95319.31
2022-12-28T18:01:02.015Z,95313.75
2022-12-28T18:03:34.090Z,95317.09
2022-12-28T18:06:01.569Z,95311.00
2022-12-28T18:08:28.998Z,95313.56
2022-12-28T18:10:56.196Z,95305.59
2022-12-28T18:13:23.341Z,95316.41
2022-12-28T18:15:49.941Z,95316.53
2022-12-28T18:18:17.772Z,95312.41
2022-12-28T18:20:54.562Z,95304.78
2022-12-28T18:23:21.462Z,95310.31
2022-12-28T18:25:47.893Z,95301.56
2022-12-28T18:28:15.045Z,95307.94
2022-12-28T18:30:41.754Z,95308.09
2022-12-28T18:33:08.638Z,95313.47
2022-12-28T18:35:35.346Z,95307.75
2022-12-28T18:38:02.575Z,95304.06
2022-12-28T18:40:29.116Z,95300.41
2022-12-28T18:42:56.632Z,95307.22
2022-12-28T18:45:23.115Z,95298.00
2022-12-28T18:47:49.555Z,95287.06
2022-12-28T18:50:15.965Z,95290.41
2022-12-28T18:52:44.430Z,95290.41
2022-12-28T18:55:11.477Z,95283.59
2022-12-28T18:57:37.945Z,95287.38
2022-12-28T19:00:05.698Z,95291.00
2022-12-28T19:02:32.913Z,95287.63
2022-12-28T19:04:59.674Z,95290.94
2022-12-28T19:07:26.310Z,95281.91
2022-12-28T19:10:13.633Z,95281.72
2022-12-28T19:12:42.060Z,95280.28
2022-12-28T19:15:09.849Z,95285.66
2022-12-28T19:17:36.521Z,95274.22
2022-12-28T19:20:03.831Z,95275.44
2022-12-28T19:22:30.297Z,95270.66
2022-12-28T19:24:56.700Z,95265.34
2022-12-28T19:27:23.169Z,95259.00
2022-12-28T19:29:50.260Z,95259.50
2022-12-28T19:32:16.733Z,95245.88
2022-12-28T19:34:43.258Z,95242.22
2022-12-28T19:37:09.792Z,95236.66
2022-12-28T19:39:36.305Z,95235.75
2022-12-28T19:42:03.528Z,95242.38
2022-12-28T19:44:29.934Z,95231.28
2022-12-28T19:46:58.118Z,95227.16
2022-12-28T19:49:24.726Z,95254.91
2022-12-28T19:51:51.358Z,95221.50
2022-12-28T19:54:17.817Z,95210.53
2022-12-28T19:56:44.287Z,95214.38
2022-12-28T19:59:10.718Z,95205.97
2022-12-28T20:01:38.271Z,95214.03
2022-12-28T20:04:12.909Z,95203.94
2022-12-28T20:06:41.801Z,95206.31
2022-12-28T20:09:08.350Z,95207.59
2022-12-28T20:11:35.278Z,95211.41
2022-12-28T20:14:03.779Z,95204.06
2022-12-28T20:16:32.723Z,95196.59
2022-12-28T20:19:00.793Z,95197.34
2022-12-28T20:21:27.883Z,95208.59
2022-12-28T20:23:54.746Z,95201.97
2022-12-28T20:26:22.351Z,95190.41
2022-12-28T20:28:49.430Z,95189.75
2022-12-28T20:31:16.431Z,95186.13
2022-12-28T20:33:43.089Z,95177.72
2022-12-28T20:36:12.120Z,95180.94
2022-12-28T20:38:39.323Z,95182.59
2022-12-28T20:41:08.496Z,95192.59
2022-12-28T20:43:35.617Z,95173.53
2022-12-28T20:46:02.439Z,95188.16
2022-12-28T20:48:31.815Z,95181.34
2022-12-28T20:51:00.516Z,95175.34
2022-12-28T20:53:27.542Z,95177.72
2022-12-28T20:56:04.543Z,95179.47
2022-12-28T20:58:30.942Z,95177.41
2022-12-28T21:01:03.279Z,95173.44
2022-12-28T21:03:29.935Z,95169.81
2022-12-28T21:05:56.503Z,95171.84
2022-12-28T21:08:28.827Z,95168.19
2022-12-28T21:10:58.379Z,95146.91
2022-12-28T21:13:25.108Z,95160.06
2022-12-28T21:15:51.883Z,95155.66
2022-12-28T21:18:18.977Z,95165.50
2022-12-28T21:20:45.991Z,95160.56
2022-12-28T21:23:12.514Z,95137.38
2022-12-28T21:25:39.790Z,95144.84
2022-12-28T21:28:07.357Z,95144.06
2022-12-28T21:30:33.920Z,95144.56
2022-12-28T21:33:00.327Z,95150.13
2022-12-28T21:35:32.090Z,95141.88
2022-12-28T21:38:01.048Z,95125.41
2022-12-28T21:40:27.794Z,95127.94
2022-12-28T21:42:54.354Z,95124.63
2022-12-28T21:45:21.672Z,95131.91
2022-12-28T21:47:48.689Z,95128.13
2022-12-28T21:50:15.713Z,95131.06
2022-12-28T21:52:44.073Z,95128.69
2022-12-28T21:55:31.987Z,95123.44
2022-12-28T21:57:59.865Z,95119.78
2022-12-28T22:00:45.614Z,95123.28
2022-12-28T22:03:30.224Z,95121.19
2022-12-28T22:06:04.170Z,95117.72
2022-12-28T22:08:49.416Z,95119.09
2022-12-28T22:11:34.718Z,95120.19
2022-12-28T22:14:01.309Z,95114.38
2022-12-28T22:16:31.633Z,95116.56
2022-12-28T22:19:02.751Z,95114.00
2022-12-28T22:21:29.929Z,95117.16
2022-12-28T22:23:56.335Z,95101.44
2022-12-28T22:26:22.774Z,95105.22
2022-12-28T22:28:49.287Z,95109.06
2022-12-28T22:31:15.664Z,95119.53
2022-12-28T22:33:42.709Z,95110.19
2022-12-28T22:36:13.889Z,95109.41
2022-12-28T22:38:40.484Z,95111.00
2022-12-28T22:41:07.096Z,95110.50
2022-12-28T22:43:33.968Z,95106.13
2022-12-28T22:46:02.069Z,95110.91
2022-12-28T22:48:28.869Z,95105.03
2022-12-28T22:51:00.722Z,95106.47
2022-12-28T22:53:27.087Z,95107.22
2022-12-28T22:55:57.351Z,95100.56
2022-12-28T22:58:23.828Z,95099.66
2022-12-28T23:00:50.385Z,95102.03
2022-12-28T23:03:16.826Z,95099.00
2022-12-28T23:05:49.949Z,95099.19
2022-12-28T23:08:17.115Z,95096.81
2022-12-28T23:10:53.124Z,95085.09
2022-12-28T23:13:19.700Z,95083.72
2022-12-28T23:15:54.836Z,95082.16
2022-12-28T23:18:39.243Z,95083.50
2022-12-28T23:21:24.045Z,95082.63
2022-12-28T23:24:09.399Z,95067.19
2022-12-28T23:26:54.131Z,95070.16
2022-12-28T23:29:24.298Z,95062.94
2022-12-28T23:31:53.793Z,95064.06
2022-12-28T23:34:20.207Z,95059.44
2022-12-28T23:36:46.649Z,95054.03
2022-12-28T23:39:13.723Z,95054.72
2022-12-28T23:41:48.966Z,95059.00
2022-12-28T23:44:15.856Z,95056.94
2022-12-28T23:46:42.371Z,95056.50
2022-12-28T23:49:09.035Z,95055.81
2022-12-28T23:51:35.450Z,95051.69
2022-12-28T23:54:01.944Z,95048.34
2022-12-28T23:56:29.001Z,95051.53
2022-12-28T23:58:55.389Z,95052.38
